sensor_id;sensor_type;location;lat;lon;timestamp;temperature;humidity
26037;DHT22;13810;48.376;10.944;2022-08-25T00:00:03;16.00;99.90
26037;DHT22;13810;48.376;10.944;2022-08-25T00:00:34;15.90;99.90
26037;DHT22;13810;48.376;10.944;2022-08-25T00:01:13;15.90;99.90
26037;DHT22;13810;48.376;10.944;2022-08-25T00:01:50;15.90;99.90
26037;DHT22;13810;48.376;10.944;2022-08-25T00:02:21;15.90;99.90
26037;DHT22;13810;48.376;10.944;2022-08-25T00:02:54;15.90;99.90
26037;DHT22;13810;48.376;10.944;2022-08-25T00:03:25;15.90;99.90
26037;DHT22;13810;48.376;10.944;2022-08-25T00:03:57;15.90;99.90
26037;DHT22;13810;48.376;10.944;2022-08-25T00:04:28;15.90;99.90
26037;DHT22;13810;48.376;10.944;2022-08-25T00:04:59;15.90;99.90
26037;DHT22;13810;48.376;10.944;2022-08-25T00:05:29;15.90;99.90
26037;DHT22;13810;48.376;10.944;2022-08-25T00:06:00;15.90;99.90
26037;DHT22;13810;48.376;10.944;2022-08-25T00:06:33;15.90;99.90
26037;DHT22;13810;48.376;10.944;2022-08-25T00:07:04;15.90;99.90
26037;DHT22;13810;48.376;10.944;2022-08-25T00:07:36;15.80;99.90
26037;DHT22;13810;48.376;10.944;2022-08-25T00:08:06;15.90;99.90
26037;DHT22;13810;48.376;10.944;2022-08-25T00:08:38;15.90;99.90
26037;DHT22;13810;48.376;10.944;2022-08-25T00:09:11;15.90;99.90
26037;DHT22;13810;48.376;10.944;2022-08-25T00:09:42;15.80;99.90
26037;DHT22;13810;48.376;10.944;2022-08-25T00:10:13;15.80;99.90
26037;DHT22;13810;48.376;10.944;2022-08-25T00:10:44;15.80;99.90
26037;DHT22;13810;48.376;10.944;2022-08-25T00:11:17;15.80;99.90
26037;DHT22;13810;48.376;10.944;2022-08-25T00:11:49;15.80;99.90
26037;DHT22;13810;48.376;10.944;2022-08-25T00:12:20;15.80;99.90
26037;DHT22;13810;48.376;10.944;2022-08-25T00:12:51;15.80;99.90
26037;DHT22;13810;48.376;10.944;2022-08-25T00:13:21;15.80;99.90
26037;DHT22;13810;48.376;10.944;2022-08-25T00:13:58;15.80;99.90
26037;DHT22;13810;48.376;10.944;2022-08-25T00:14:34;15.80;99.90
26037;DHT22;13810;48.376;10.944;2022-08-25T00:15:06;15.80;99.90
26037;DHT22;13810;48.376;10.944;2022-08-25T00:15:38;15.80;99.90
26037;DHT22;13810;48.376;10.944;2022-08-25T00:16:10;15.80;99.90
26037;DHT22;13810;48.376;10.944;2022-08-25T00:16:42;15.80;99.90
26037;DHT22;13810;48.376;10.944;2022-08-25T00:17:12;15.80;99.90
26037;DHT22;13810;48.376;10.944;2022-08-25T00:17:43;15.80;99.90
26037;DHT22;13810;48.376;10.944;2022-08-25T00:18:14;15.70;99.90
26037;DHT22;13810;48.376;10.944;2022-08-25T00:18:49;15.80;99.90
26037;DHT22;13810;48.376;10.944;2022-08-25T00:19:25;15.70;99.90
26037;DHT22;13810;48.376;10.944;2022-08-25T00:19:55;15.70;99.90
26037;DHT22;13810;48.376;10.944;2022-08-25T00:20:27;15.70;99.90
26037;DHT22;13810;48.376;10.944;2022-08-25T00:20:58;15.70;99.90
26037;DHT22;13810;48.376;10.944;2022-08-25T00:21:29;15.70;99.90
26037;DHT22;13810;48.376;10.944;2022-08-25T00:22:02;15.70;99.90
26037;DHT22;13810;48.376;10.944;2022-08-25T00:22:33;15.60;99.90
26037;DHT22;13810;48.376;10.944;2022-08-25T00:23:03;15.60;99.90
26037;DHT22;13810;48.376;10.944;2022-08-25T00:23:34;15.60;99.90
26037;DHT22;13810;48.376;10.944;2022-08-25T00:24:05;15.60;99.90
26037;DHT22;13810;48.376;10.944;2022-08-25T00:24:36;15.60;99.90
26037;DHT22;13810;48.376;10.944;2022-08-25T00:25:08;15.60;99.90
26037;DHT22;13810;48.376;10.944;2022-08-25T00:25:39;15.60;99.90
26037;DHT22;13810;48.376;10.944;2022-08-25T00:26:11;15.60;99.90
26037;DHT22;13810;48.376;10.944;2022-08-25T00:26:43;15.60;99.90
26037;DHT22;13810;48.376;10.944;2022-08-25T00:27:14;15.60;99.90
26037;DHT22;13810;48.376;10.944;2022-08-25T00:27:45;15.60;99.90
26037;DHT22;13810;48.376;10.944;2022-08-25T00:28:17;15.60;99.90
26037;DHT22;13810;48.376;10.944;2022-08-25T00:28:48;15.60;99.90
26037;DHT22;13810;48.376;10.944;2022-08-25T00:29:21;15.60;99.90
26037;DHT22;13810;48.376;10.944;2022-08-25T00:29:52;15.50;99.90
26037;DHT22;13810;48.376;10.944;2022-08-25T00:30:23;15.50;99.90
26037;DHT22;13810;48.376;10.944;2022-08-25T00:30:53;15.50;99.90
26037;DHT22;13810;48.376;10.944;2022-08-25T00:31:24;15.50;99.90
26037;DHT22;13810;48.376;10.944;2022-08-25T00:31:55;15.50;99.90
26037;DHT22;13810;48.376;10.944;2022-08-25T00:32:27;15.50;99.90
26037;DHT22;13810;48.376;10.944;2022-08-25T00:32:58;15.50;99.90
26037;DHT22;13810;48.376;10.944;2022-08-25T00:33:29;15.50;99.90
26037;DHT22;13810;48.376;10.944;2022-08-25T00:34:00;15.50;99.90
26037;DHT22;13810;48.376;10.944;2022-08-25T00:34:34;15.50;99.90
26037;DHT22;13810;48.376;10.944;2022-08-25T00:35:06;15.50;99.90
26037;DHT22;13810;48.376;10.944;2022-08-25T00:35:37;15.50;99.90
26037;DHT22;13810;48.376;10.944;2022-08-25T00:36:08;15.50;99.90
26037;DHT22;13810;48.376;10.944;2022-08-25T00:36:42;15.40;99.90
26037;DHT22;13810;48.376;10.944;2022-08-25T00:37:13;15.50;99.90
26037;DHT22;13810;48.376;10.944;2022-08-25T00:37:45;15.40;99.90
26037;DHT22;13810;48.376;10.944;2022-08-25T00:38:15;15.50;99.90
26037;DHT22;13810;48.376;10.944;2022-08-25T00:38:47;15.50;99.90
26037;DHT22;13810;48.376;10.944;2022-08-25T00:39:20;15.50;99.90
26037;DHT22;13810;48.376;10.944;2022-08-25T00:39:51;15.40;99.90
26037;DHT22;13810;48.376;10.944;2022-08-25T00:40:24;15.40;99.90
26037;DHT22;13810;48.376;10.944;2022-08-25T00:40:55;15.50;99.90
26037;DHT22;13810;48.376;10.944;2022-08-25T00:41:40;15.50;99.90
26037;DHT22;13810;48.376;10.944;2022-08-25T00:42:12;15.50;99.90
26037;DHT22;13810;48.376;10.944;2022-08-25T00:42:42;15.40;99.90
26037;DHT22;13810;48.376;10.944;2022-08-25T00:43:13;15.50;99.90
26037;DHT22;13810;48.376;10.944;2022-08-25T00:43:50;15.50;99.90
26037;DHT22;13810;48.376;10.944;2022-08-25T00:44:23;15.50;99.90
26037;DHT22;13810;48.376;10.944;2022-08-25T00:44:54;15.50;99.90
26037;DHT22;13810;48.376;10.944;2022-08-25T00:45:25;15.50;99.90
26037;DHT22;13810;48.376;10.944;2022-08-25T00:45:56;15.50;99.90
26037;DHT22;13810;48.376;10.944;2022-08-25T00:46:30;15.50;99.90
26037;DHT22;13810;48.376;10.944;2022-08-25T00:47:03;15.50;99.90
26037;DHT22;13810;48.376;10.944;2022-08-25T00:47:34;15.50;99.90
26037;DHT22;13810;48.376;10.944;2022-08-25T00:48:05;15.40;99.90
26037;DHT22;13810;48.376;10.944;2022-08-25T00:48:38;15.40;99.90
26037;DHT22;13810;48.376;10.944;2022-08-25T00:49:47;15.40;99.90
26037;DHT22;13810;48.376;10.944;2022-08-25T00:50:19;15.40;99.90
26037;DHT22;13810;48.376;10.944;2022-08-25T00:50:50;15.40;99.90
26037;DHT22;13810;48.376;10.944;2022-08-25T00:51:32;15.30;99.90
26037;DHT22;13810;48.376;10.944;2022-08-25T00:52:08;15.30;99.90
26037;DHT22;13810;48.376;10.944;2022-08-25T00:52:46;15.30;99.90
26037;DHT22;13810;48.376;10.944;2022-08-25T00:53:17;15.30;99.90
26037;DHT22;13810;48.376;10.944;2022-08-25T00:53:49;15.30;99.90
26037;DHT22;13810;48.376;10.944;2022-08-25T00:54:24;15.30;99.90
26037;DHT22;13810;48.376;10.944;2022-08-25T00:55:06;15.30;99.90
26037;DHT22;13810;48.376;10.944;2022-08-25T00:55:38;15.30;99.90
26037;DHT22;13810;48.376;10.944;2022-08-25T00:56:11;15.30;99.90
26037;DHT22;13810;48.376;10.944;2022-08-25T00:56:43;15.30;99.90
26037;DHT22;13810;48.376;10.944;2022-08-25T00:57:16;15.30;99.90
26037;DHT22;13810;48.376;10.944;2022-08-25T00:58:12;15.30;99.90
26037;DHT22;13810;48.376;10.944;2022-08-25T00:58:44;15.30;99.90
26037;DHT22;13810;48.376;10.944;2022-08-25T00:59:15;15.20;99.90
26037;DHT22;13810;48.376;10.944;2022-08-25T00:59:46;15.20;99.90
26037;DHT22;13810;48.376;10.944;2022-08-25T01:00:31;15.20;99.90
26037;DHT22;13810;48.376;10.944;2022-08-25T01:01:02;15.20;99.90
26037;DHT22;13810;48.376;10.944;2022-08-25T01:01:33;15.20;99.90
26037;DHT22;13810;48.376;10.944;2022-08-25T01:02:06;15.20;99.90
26037;DHT22;13810;48.376;10.944;2022-08-25T01:02:37;15.20;99.90
26037;DHT22;13810;48.376;10.944;2022-08-25T01:03:09;15.20;99.90
26037;DHT22;13810;48.376;10.944;2022-08-25T01:03:39;15.20;99.90
26037;DHT22;13810;48.376;10.944;2022-08-25T01:04:10;15.20;99.90
26037;DHT22;13810;48.376;10.944;2022-08-25T01:04:42;15.20;99.90
26037;DHT22;13810;48.376;10.944;2022-08-25T01:05:13;15.20;99.90
26037;DHT22;13810;48.376;10.944;2022-08-25T01:05:45;15.20;99.90
26037;DHT22;13810;48.376;10.944;2022-08-25T01:06:16;15.20;99.90
26037;DHT22;13810;48.376;10.944;2022-08-25T01:06:47;15.20;99.90
26037;DHT22;13810;48.376;10.944;2022-08-25T01:07:19;15.20;99.90
26037;DHT22;13810;48.376;10.944;2022-08-25T01:07:52;15.10;99.90
26037;DHT22;13810;48.376;10.944;2022-08-25T01:08:25;15.20;99.90
26037;DHT22;13810;48.376;10.944;2022-08-25T01:08:57;15.20;99.90
26037;DHT22;13810;48.376;10.944;2022-08-25T01:09:29;15.10;99.90
26037;DHT22;13810;48.376;10.944;2022-08-25T01:10:02;15.10;99.90
26037;DHT22;13810;48.376;10.944;2022-08-25T01:10:35;15.10;99.90
26037;DHT22;13810;48.376;10.944;2022-08-25T01:11:08;15.10;99.90
26037;DHT22;13810;48.376;10.944;2022-08-25T01:11:41;15.10;99.90
26037;DHT22;13810;48.376;10.944;2022-08-25T01:12:14;15.10;99.90
26037;DHT22;13810;48.376;10.944;2022-08-25T01:12:45;15.10;99.90
26037;DHT22;13810;48.376;10.944;2022-08-25T01:13:26;15.10;99.90
26037;DHT22;13810;48.376;10.944;2022-08-25T01:14:00;15.10;99.90
26037;DHT22;13810;48.376;10.944;2022-08-25T01:14:36;15.10;99.90
26037;DHT22;13810;48.376;10.944;2022-08-25T01:15:11;15.10;99.90
26037;DHT22;13810;48.376;10.944;2022-08-25T01:15:41;15.10;99.90
26037;DHT22;13810;48.376;10.944;2022-08-25T01:16:14;15.10;99.90
26037;DHT22;13810;48.376;10.944;2022-08-25T01:16:46;15.10;99.90
26037;DHT22;13810;48.376;10.944;2022-08-25T01:17:16;15.00;99.90
26037;DHT22;13810;48.376;10.944;2022-08-25T01:17:50;15.10;99.90
26037;DHT22;13810;48.376;10.944;2022-08-25T01:18:25;15.00;99.90
26037;DHT22;13810;48.376;10.944;2022-08-25T01:18:57;15.00;99.90
26037;DHT22;13810;48.376;10.944;2022-08-25T01:19:29;15.00;99.90
26037;DHT22;13810;48.376;10.944;2022-08-25T01:19:59;15.00;99.90
26037;DHT22;13810;48.376;10.944;2022-08-25T01:20:31;15.00;99.90
26037;DHT22;13810;48.376;10.944;2022-08-25T01:21:02;15.00;99.90
26037;DHT22;13810;48.376;10.944;2022-08-25T01:21:39;15.00;99.90
26037;DHT22;13810;48.376;10.944;2022-08-25T01:22:10;15.00;99.90
26037;DHT22;13810;48.376;10.944;2022-08-25T01:22:41;15.00;99.90
26037;DHT22;13810;48.376;10.944;2022-08-25T01:23:12;14.90;99.90
26037;DHT22;13810;48.376;10.944;2022-08-25T01:23:44;14.90;99.90
26037;DHT22;13810;48.376;10.944;2022-08-25T01:24:42;14.90;99.90
26037;DHT22;13810;48.376;10.944;2022-08-25T01:25:42;14.90;99.90
26037;DHT22;13810;48.376;10.944;2022-08-25T01:26:23;14.90;99.90
26037;DHT22;13810;48.376;10.944;2022-08-25T01:26:54;14.90;99.90
26037;DHT22;13810;48.376;10.944;2022-08-25T01:27:25;14.90;99.90
26037;DHT22;13810;48.376;10.944;2022-08-25T01:27:56;14.90;99.90
26037;DHT22;13810;48.376;10.944;2022-08-25T01:28:27;14.90;99.90
26037;DHT22;13810;48.376;10.944;2022-08-25T01:28:59;14.90;99.90
26037;DHT22;13810;48.376;10.944;2022-08-25T01:29:48;14.90;99.90
26037;DHT22;13810;48.376;10.944;2022-08-25T01:30:19;14.90;99.90
26037;DHT22;13810;48.376;10.944;2022-08-25T01:30:51;14.90;99.90
26037;DHT22;13810;48.376;10.944;2022-08-25T01:31:22;14.90;99.90
26037;DHT22;13810;48.376;10.944;2022-08-25T01:31:58;14.90;99.90
26037;DHT22;13810;48.376;10.944;2022-08-25T01:32:32;14.80;99.90
26037;DHT22;13810;48.376;10.944;2022-08-25T01:33:04;14.90;99.90
26037;DHT22;13810;48.376;10.944;2022-08-25T01:33:36;14.80;99.90
26037;DHT22;13810;48.376;10.944;2022-08-25T01:34:09;14.80;99.90
26037;DHT22;13810;48.376;10.944;2022-08-25T01:34:43;14.80;99.90
26037;DHT22;13810;48.376;10.944;2022-08-25T01:35:15;14.80;99.90
26037;DHT22;13810;48.376;10.944;2022-08-25T01:35:46;14.80;99.90
26037;DHT22;13810;48.376;10.944;2022-08-25T01:36:18;14.80;99.90
26037;DHT22;13810;48.376;10.944;2022-08-25T01:36:49;14.90;99.90
26037;DHT22;13810;48.376;10.944;2022-08-25T01:37:20;14.90;99.90
26037;DHT22;13810;48.376;10.944;2022-08-25T01:37:51;14.80;99.90
26037;DHT22;13810;48.376;10.944;2022-08-25T01:38:21;14.80;99.90
26037;DHT22;13810;48.376;10.944;2022-08-25T01:38:52;14.80;99.90
26037;DHT22;13810;48.376;10.944;2022-08-25T01:39:25;14.90;99.90
26037;DHT22;13810;48.376;10.944;2022-08-25T01:39:55;14.90;99.90
26037;DHT22;13810;48.376;10.944;2022-08-25T01:40:27;14.90;99.90
26037;DHT22;13810;48.376;10.944;2022-08-25T01:40:57;14.90;99.90
26037;DHT22;13810;48.376;10.944;2022-08-25T01:43:21;14.90;99.90
26037;DHT22;13810;48.376;10.944;2022-08-25T01:43:55;14.90;99.90
26037;DHT22;13810;48.376;10.944;2022-08-25T01:44:26;14.90;99.90
26037;DHT22;13810;48.376;10.944;2022-08-25T01:44:56;14.90;99.90
26037;DHT22;13810;48.376;10.944;2022-08-25T01:45:27;14.90;99.90
26037;DHT22;13810;48.376;10.944;2022-08-25T01:45:58;14.90;99.90
26037;DHT22;13810;48.376;10.944;2022-08-25T01:46:28;14.90;99.90
26037;DHT22;13810;48.376;10.944;2022-08-25T01:46:59;14.90;99.90
26037;DHT22;13810;48.376;10.944;2022-08-25T01:47:31;14.90;99.90
26037;DHT22;13810;48.376;10.944;2022-08-25T01:48:02;14.90;99.90
26037;DHT22;13810;48.376;10.944;2022-08-25T01:48:33;14.90;99.90
26037;DHT22;13810;48.376;10.944;2022-08-25T01:49:04;14.90;99.90
26037;DHT22;13810;48.376;10.944;2022-08-25T01:49:34;14.90;99.90
26037;DHT22;13810;48.376;10.944;2022-08-25T01:50:05;14.90;99.90
26037;DHT22;13810;48.376;10.944;2022-08-25T01:50:38;14.90;99.90
26037;DHT22;13810;48.376;10.944;2022-08-25T01:51:09;14.90;99.90
26037;DHT22;13810;48.376;10.944;2022-08-25T01:51:48;14.90;99.90
26037;DHT22;13810;48.376;10.944;2022-08-25T01:52:36;14.90;99.90
26037;DHT22;13810;48.376;10.944;2022-08-25T01:53:53;14.90;99.90
26037;DHT22;13810;48.376;10.944;2022-08-25T01:54:24;14.90;99.90
26037;DHT22;13810;48.376;10.944;2022-08-25T01:54:55;14.90;99.90
26037;DHT22;13810;48.376;10.944;2022-08-25T01:55:26;14.80;99.90
26037;DHT22;13810;48.376;10.944;2022-08-25T01:55:57;14.80;99.90
26037;DHT22;13810;48.376;10.944;2022-08-25T01:56:35;14.80;99.90
26037;DHT22;13810;48.376;10.944;2022-08-25T01:57:05;14.80;99.90
26037;DHT22;13810;48.376;10.944;2022-08-25T01:57:36;14.80;99.90
26037;DHT22;13810;48.376;10.944;2022-08-25T01:58:07;14.80;99.90
26037;DHT22;13810;48.376;10.944;2022-08-25T01:58:41;14.80;99.90
26037;DHT22;13810;48.376;10.944;2022-08-25T01:59:18;14.80;99.90
26037;DHT22;13810;48.376;10.944;2022-08-25T01:59:49;14.80;99.90
26037;DHT22;13810;48.376;10.944;2022-08-25T02:00:22;14.80;99.90
26037;DHT22;13810;48.376;10.944;2022-08-25T02:00:54;14.80;99.90
26037;DHT22;13810;48.376;10.944;2022-08-25T02:01:26;14.80;99.90
26037;DHT22;13810;48.376;10.944;2022-08-25T02:01:57;14.70;99.90
26037;DHT22;13810;48.376;10.944;2022-08-25T02:02:28;14.70;99.90
26037;DHT22;13810;48.376;10.944;2022-08-25T02:02:59;14.70;99.90
26037;DHT22;13810;48.376;10.944;2022-08-25T02:03:29;14.70;99.90
26037;DHT22;13810;48.376;10.944;2022-08-25T02:04:00;14.70;99.90
26037;DHT22;13810;48.376;10.944;2022-08-25T02:04:31;14.60;99.90
26037;DHT22;13810;48.376;10.944;2022-08-25T02:05:03;14.70;99.90
26037;DHT22;13810;48.376;10.944;2022-08-25T02:05:33;14.70;99.90
26037;DHT22;13810;48.376;10.944;2022-08-25T02:06:05;14.60;99.90
26037;DHT22;13810;48.376;10.944;2022-08-25T02:06:35;14.60;99.90
26037;DHT22;13810;48.376;10.944;2022-08-25T02:07:07;14.60;99.90
26037;DHT22;13810;48.376;10.944;2022-08-25T02:07:39;14.60;99.90
26037;DHT22;13810;48.376;10.944;2022-08-25T02:08:11;14.60;99.90
26037;DHT22;13810;48.376;10.944;2022-08-25T02:08:42;14.60;99.90
26037;DHT22;13810;48.376;10.944;2022-08-25T02:09:15;14.60;99.90
26037;DHT22;13810;48.376;10.944;2022-08-25T02:09:47;14.60;99.90
26037;DHT22;13810;48.376;10.944;2022-08-25T02:10:18;14.60;99.90
26037;DHT22;13810;48.376;10.944;2022-08-25T02:10:50;14.60;99.90
26037;DHT22;13810;48.376;10.944;2022-08-25T02:11:21;14.60;99.90
26037;DHT22;13810;48.376;10.944;2022-08-25T02:11:53;14.60;99.90
26037;DHT22;13810;48.376;10.944;2022-08-25T02:12:24;14.60;99.90
26037;DHT22;13810;48.376;10.944;2022-08-25T02:12:54;14.60;99.90
26037;DHT22;13810;48.376;10.944;2022-08-25T02:13:25;14.60;99.90
26037;DHT22;13810;48.376;10.944;2022-08-25T02:13:56;14.60;99.90
26037;DHT22;13810;48.376;10.944;2022-08-25T02:14:28;14.60;99.90
26037;DHT22;13810;48.376;10.944;2022-08-25T02:14:59;14.60;99.90
26037;DHT22;13810;48.376;10.944;2022-08-25T02:15:31;14.60;99.90
26037;DHT22;13810;48.376;10.944;2022-08-25T02:16:02;14.60;99.90
26037;DHT22;13810;48.376;10.944;2022-08-25T02:16:35;14.60;99.90
26037;DHT22;13810;48.376;10.944;2022-08-25T02:17:06;14.60;99.90
26037;DHT22;13810;48.376;10.944;2022-08-25T02:17:38;14.60;99.90
26037;DHT22;13810;48.376;10.944;2022-08-25T02:18:09;14.60;99.90
26037;DHT22;13810;48.376;10.944;2022-08-25T02:18:40;14.60;99.90
26037;DHT22;13810;48.376;10.944;2022-08-25T02:19:10;14.60;99.90
26037;DHT22;13810;48.376;10.944;2022-08-25T02:19:41;14.60;99.90
26037;DHT22;13810;48.376;10.944;2022-08-25T02:20:12;14.60;99.90
26037;DHT22;13810;48.376;10.944;2022-08-25T02:20:43;14.60;99.90
26037;DHT22;13810;48.376;10.944;2022-08-25T02:21:14;14.60;99.90
26037;DHT22;13810;48.376;10.944;2022-08-25T02:21:45;14.50;99.90
26037;DHT22;13810;48.376;10.944;2022-08-25T02:22:16;14.50;99.90
26037;DHT22;13810;48.376;10.944;2022-08-25T02:22:49;14.50;99.90
26037;DHT22;13810;48.376;10.944;2022-08-25T02:23:20;14.50;99.90
26037;DHT22;13810;48.376;10.944;2022-08-25T02:23:51;14.60;99.90
26037;DHT22;13810;48.376;10.944;2022-08-25T02:24:22;14.50;99.90
26037;DHT22;13810;48.376;10.944;2022-08-25T02:24:53;14.50;99.90
26037;DHT22;13810;48.376;10.944;2022-08-25T02:25:24;14.50;99.90
26037;DHT22;13810;48.376;10.944;2022-08-25T02:25:54;14.50;99.90
26037;DHT22;13810;48.376;10.944;2022-08-25T02:26:27;14.50;99.90
26037;DHT22;13810;48.376;10.944;2022-08-25T02:26:57;14.50;99.90
26037;DHT22;13810;48.376;10.944;2022-08-25T02:27:28;14.50;99.90
26037;DHT22;13810;48.376;10.944;2022-08-25T02:27:59;14.50;99.90
26037;DHT22;13810;48.376;10.944;2022-08-25T02:28:30;14.50;99.90
26037;DHT22;13810;48.376;10.944;2022-08-25T02:29:01;14.50;99.90
26037;DHT22;13810;48.376;10.944;2022-08-25T02:29:32;14.60;99.90
26037;DHT22;13810;48.376;10.944;2022-08-25T02:30:04;14.50;99.90
26037;DHT22;13810;48.376;10.944;2022-08-25T02:30:37;14.60;99.90
26037;DHT22;13810;48.376;10.944;2022-08-25T02:31:08;14.50;99.90
26037;DHT22;13810;48.376;10.944;2022-08-25T02:31:39;14.60;99.90
26037;DHT22;13810;48.376;10.944;2022-08-25T02:32:09;14.50;99.90
26037;DHT22;13810;48.376;10.944;2022-08-25T02:32:40;14.60;99.90
26037;DHT22;13810;48.376;10.944;2022-08-25T02:33:11;14.50;99.90
26037;DHT22;13810;48.376;10.944;2022-08-25T02:33:42;14.50;99.90
26037;DHT22;13810;48.376;10.944;2022-08-25T02:34:13;14.50;99.90
26037;DHT22;13810;48.376;10.944;2022-08-25T02:34:44;14.50;99.90
26037;DHT22;13810;48.376;10.944;2022-08-25T02:35:15;14.50;99.90
26037;DHT22;13810;48.376;10.944;2022-08-25T02:35:46;14.50;99.90
26037;DHT22;13810;48.376;10.944;2022-08-25T02:36:18;14.50;99.90
26037;DHT22;13810;48.376;10.944;2022-08-25T02:36:49;14.50;99.90
26037;DHT22;13810;48.376;10.944;2022-08-25T02:37:19;14.50;99.90
26037;DHT22;13810;48.376;10.944;2022-08-25T02:37:51;14.50;99.90
26037;DHT22;13810;48.376;10.944;2022-08-25T02:38:22;14.50;99.90
26037;DHT22;13810;48.376;10.944;2022-08-25T02:38:53;14.50;99.90
26037;DHT22;13810;48.376;10.944;2022-08-25T02:39:24;14.50;99.90
26037;DHT22;13810;48.376;10.944;2022-08-25T02:39:54;14.50;99.90
26037;DHT22;13810;48.376;10.944;2022-08-25T02:40:25;14.50;99.90
26037;DHT22;13810;48.376;10.944;2022-08-25T02:40:57;14.50;99.90
26037;DHT22;13810;48.376;10.944;2022-08-25T02:41:29;14.50;99.90
26037;DHT22;13810;48.376;10.944;2022-08-25T02:42:00;14.50;99.90
26037;DHT22;13810;48.376;10.944;2022-08-25T02:42:31;14.50;99.90
26037;DHT22;13810;48.376;10.944;2022-08-25T02:43:02;14.50;99.90
26037;DHT22;13810;48.376;10.944;2022-08-25T02:43:33;14.50;99.90
26037;DHT22;13810;48.376;10.944;2022-08-25T02:44:04;14.40;99.90
26037;DHT22;13810;48.376;10.944;2022-08-25T02:44:35;14.40;99.90
26037;DHT22;13810;48.376;10.944;2022-08-25T02:45:06;14.40;99.90
26037;DHT22;13810;48.376;10.944;2022-08-25T02:45:37;14.40;99.90
26037;DHT22;13810;48.376;10.944;2022-08-25T02:46:08;14.40;99.90
26037;DHT22;13810;48.376;10.944;2022-08-25T02:46:39;14.40;99.90
26037;DHT22;13810;48.376;10.944;2022-08-25T02:47:10;14.40;99.90
26037;DHT22;13810;48.376;10.944;2022-08-25T02:47:41;14.40;99.90
26037;DHT22;13810;48.376;10.944;2022-08-25T02:48:12;14.40;99.90
26037;DHT22;13810;48.376;10.944;2022-08-25T02:48:43;14.40;99.90
26037;DHT22;13810;48.376;10.944;2022-08-25T02:49:14;14.40;99.90
26037;DHT22;13810;48.376;10.944;2022-08-25T02:49:45;14.40;99.90
26037;DHT22;13810;48.376;10.944;2022-08-25T02:50:15;14.40;99.90
26037;DHT22;13810;48.376;10.944;2022-08-25T02:50:47;14.40;99.90
26037;DHT22;13810;48.376;10.944;2022-08-25T02:51:21;14.40;99.90
26037;DHT22;13810;48.376;10.944;2022-08-25T02:51:51;14.40;99.90
26037;DHT22;13810;48.376;10.944;2022-08-25T02:52:23;14.50;99.90
26037;DHT22;13810;48.376;10.944;2022-08-25T02:52:54;14.50;99.90
26037;DHT22;13810;48.376;10.944;2022-08-25T02:53:26;14.50;99.90
26037;DHT22;13810;48.376;10.944;2022-08-25T02:53:59;14.60;99.90
26037;DHT22;13810;48.376;10.944;2022-08-25T02:54:31;14.50;99.90
26037;DHT22;13810;48.376;10.944;2022-08-25T02:55:04;14.50;99.90
26037;DHT22;13810;48.376;10.944;2022-08-25T02:55:36;14.50;99.90
26037;DHT22;13810;48.376;10.944;2022-08-25T02:56:11;14.50;99.90
26037;DHT22;13810;48.376;10.944;2022-08-25T02:56:42;14.50;99.90
26037;DHT22;13810;48.376;10.944;2022-08-25T02:57:13;14.50;99.90
26037;DHT22;13810;48.376;10.944;2022-08-25T02:57:45;14.50;99.90
26037;DHT22;13810;48.376;10.944;2022-08-25T02:58:16;14.50;99.90
26037;DHT22;13810;48.376;10.944;2022-08-25T02:58:47;14.50;99.90
26037;DHT22;13810;48.376;10.944;2022-08-25T02:59:18;14.50;99.90
26037;DHT22;13810;48.376;10.944;2022-08-25T02:59:50;14.50;99.90
26037;DHT22;13810;48.376;10.944;2022-08-25T03:00:21;14.50;99.90
26037;DHT22;13810;48.376;10.944;2022-08-25T03:00:52;14.50;99.90
26037;DHT22;13810;48.376;10.944;2022-08-25T03:01:22;14.50;99.90
26037;DHT22;13810;48.376;10.944;2022-08-25T03:01:53;14.50;99.90
26037;DHT22;13810;48.376;10.944;2022-08-25T03:02:25;14.50;99.90
26037;DHT22;13810;48.376;10.944;2022-08-25T03:02:57;14.50;99.90
26037;DHT22;13810;48.376;10.944;2022-08-25T03:03:27;14.50;99.90
26037;DHT22;13810;48.376;10.944;2022-08-25T03:03:59;14.50;99.90
26037;DHT22;13810;48.376;10.944;2022-08-25T03:04:31;14.50;99.90
26037;DHT22;13810;48.376;10.944;2022-08-25T03:05:02;14.50;99.90
26037;DHT22;13810;48.376;10.944;2022-08-25T03:05:33;14.50;99.90
26037;DHT22;13810;48.376;10.944;2022-08-25T03:06:06;14.50;99.90
26037;DHT22;13810;48.376;10.944;2022-08-25T03:06:37;14.50;99.90
26037;DHT22;13810;48.376;10.944;2022-08-25T03:07:09;14.50;99.90
26037;DHT22;13810;48.376;10.944;2022-08-25T03:07:40;14.50;99.90
26037;DHT22;13810;48.376;10.944;2022-08-25T03:08:11;14.50;99.90
26037;DHT22;13810;48.376;10.944;2022-08-25T03:08:42;14.50;99.90
26037;DHT22;13810;48.376;10.944;2022-08-25T03:09:13;14.50;99.90
26037;DHT22;13810;48.376;10.944;2022-08-25T03:09:44;14.50;99.90
26037;DHT22;13810;48.376;10.944;2022-08-25T03:10:17;14.50;99.90
26037;DHT22;13810;48.376;10.944;2022-08-25T03:10:49;14.50;99.90
26037;DHT22;13810;48.376;10.944;2022-08-25T03:11:20;14.50;99.90
26037;DHT22;13810;48.376;10.944;2022-08-25T03:11:50;14.50;99.90
26037;DHT22;13810;48.376;10.944;2022-08-25T03:12:21;14.50;99.90
26037;DHT22;13810;48.376;10.944;2022-08-25T03:12:52;14.50;99.90
26037;DHT22;13810;48.376;10.944;2022-08-25T03:13:22;14.50;99.90
26037;DHT22;13810;48.376;10.944;2022-08-25T03:13:53;14.50;99.90
26037;DHT22;13810;48.376;10.944;2022-08-25T03:14:25;14.50;99.90
26037;DHT22;13810;48.376;10.944;2022-08-25T03:14:56;14.50;99.90
26037;DHT22;13810;48.376;10.944;2022-08-25T03:15:27;14.50;99.90
26037;DHT22;13810;48.376;10.944;2022-08-25T03:15:59;14.50;99.90
26037;DHT22;13810;48.376;10.944;2022-08-25T03:16:30;14.50;99.90
26037;DHT22;13810;48.376;10.944;2022-08-25T03:17:01;14.50;99.90
26037;DHT22;13810;48.376;10.944;2022-08-25T03:17:32;14.50;99.90
26037;DHT22;13810;48.376;10.944;2022-08-25T03:18:03;14.50;99.90
26037;DHT22;13810;48.376;10.944;2022-08-25T03:18:35;14.50;99.90
26037;DHT22;13810;48.376;10.944;2022-08-25T03:19:06;14.50;99.90
26037;DHT22;13810;48.376;10.944;2022-08-25T03:19:37;14.50;99.90
26037;DHT22;13810;48.376;10.944;2022-08-25T03:20:08;14.50;99.90
26037;DHT22;13810;48.376;10.944;2022-08-25T03:20:39;14.50;99.90
26037;DHT22;13810;48.376;10.944;2022-08-25T03:21:11;14.50;99.90
26037;DHT22;13810;48.376;10.944;2022-08-25T03:21:42;14.50;99.90
26037;DHT22;13810;48.376;10.944;2022-08-25T03:22:15;14.60;99.90
26037;DHT22;13810;48.376;10.944;2022-08-25T03:22:45;14.50;99.90